sensor_id;sensor_type;location;lat;lon;timestamp;temperature;humidity
22173;DHT22;11252;50.596;17.648;2023-03-30T00:01:05;6.40;92.20
22173;DHT22;11252;50.596;17.648;2023-03-30T00:03:38;6.50;92.20
22173;DHT22;11252;50.596;17.648;2023-03-30T00:06:06;6.50;92.20
22173;DHT22;11252;50.596;17.648;2023-03-30T00:08:35;6.40;92.20
22173;DHT22;11252;50.596;17.648;2023-03-30T00:11:05;6.40;92.20
22173;DHT22;11252;50.596;17.648;2023-03-30T00:13:35;6.40;92.20
22173;DHT22;11252;50.596;17.648;2023-03-30T00:16:04;6.50;92.20
22173;DHT22;11252;50.596;17.648;2023-03-30T00:18:36;6.40;92.20
22173;DHT22;11252;50.596;17.648;2023-03-30T00:21:08;6.40;92.20
22173;DHT22;11252;50.596;17.648;2023-03-30T00:23:37;6.50;92.20
22173;DHT22;11252;50.596;17.648;2023-03-30T00:26:06;6.40;92.20
22173;DHT22;11252;50.596;17.648;2023-03-30T00:31:19;6.40;92.20
22173;DHT22;11252;50.596;17.648;2023-03-30T00:33:46;6.40;92.20
22173;DHT22;11252;50.596;17.648;2023-03-30T00:36:14;6.30;92.20
22173;DHT22;11252;50.596;17.648;2023-03-30T00:38:42;6.20;92.20
22173;DHT22;11252;50.596;17.648;2023-03-30T00:41:10;6.20;92.20
22173;DHT22;11252;50.596;17.648;2023-03-30T00:44:00;6.20;92.20
22173;DHT22;11252;50.596;17.648;2023-03-30T00:46:29;6.10;92.20
22173;DHT22;11252;50.596;17.648;2023-03-30T00:49:04;6.10;92.20
22173;DHT22;11252;50.596;17.648;2023-03-30T00:51:34;6.10;92.20
22173;DHT22;11252;50.596;17.648;2023-03-30T00:54:07;6.00;92.20
22173;DHT22;11252;50.596;17.648;2023-03-30T00:56:35;6.00;92.20
22173;DHT22;11252;50.596;17.648;2023-03-30T00:59:03;6.00;92.20
22173;DHT22;11252;50.596;17.648;2023-03-30T01:01:32;6.00;92.20
22173;DHT22;11252;50.596;17.648;2023-03-30T01:04:07;6.00;92.20
22173;DHT22;11252;50.596;17.648;2023-03-30T01:06:36;6.00;92.20
22173;DHT22;11252;50.596;17.648;2023-03-30T01:09:06;6.00;92.20
22173;DHT22;11252;50.596;17.648;2023-03-30T01:11:34;6.00;92.20
22173;DHT22;11252;50.596;17.648;2023-03-30T01:14:05;6.00;92.20
22173;DHT22;11252;50.596;17.648;2023-03-30T01:17:14;6.10;92.20
22173;DHT22;11252;50.596;17.648;2023-03-30T01:23:11;6.10;92.20
22173;DHT22;11252;50.596;17.648;2023-03-30T01:28:54;6.10;92.20
22173;DHT22;11252;50.596;17.648;2023-03-30T01:31:33;6.10;92.20
22173;DHT22;11252;50.596;17.648;2023-03-30T01:34:27;6.10;92.20
22173;DHT22;11252;50.596;17.648;2023-03-30T01:40:06;6.00;92.20
22173;DHT22;11252;50.596;17.648;2023-03-30T01:42:49;6.10;92.20
22173;DHT22;11252;50.596;17.648;2023-03-30T01:45:49;6.00;92.20
22173;DHT22;11252;50.596;17.648;2023-03-30T01:48:42;6.00;92.20
22173;DHT22;11252;50.596;17.648;2023-03-30T01:51:26;6.00;92.20
22173;DHT22;11252;50.596;17.648;2023-03-30T01:58:59;6.00;92.20
22173;DHT22;11252;50.596;17.648;2023-03-30T02:01:29;6.00;92.20
22173;DHT22;11252;50.596;17.648;2023-03-30T02:04:00;6.00;92.20
22173;DHT22;11252;50.596;17.648;2023-03-30T02:09:11;6.00;92.20
22173;DHT22;11252;50.596;17.648;2023-03-30T02:11:43;6.00;92.20
22173;DHT22;11252;50.596;17.648;2023-03-30T02:14:15;6.00;92.20
22173;DHT22;11252;50.596;17.648;2023-03-30T02:16:49;6.00;92.20
22173;DHT22;11252;50.596;17.648;2023-03-30T02:19:18;6.10;92.20
22173;DHT22;11252;50.596;17.648;2023-03-30T02:21:46;6.10;92.20
22173;DHT22;11252;50.596;17.648;2023-03-30T02:24:21;6.10;92.20
22173;DHT22;11252;50.596;17.648;2023-03-30T02:26:50;6.10;92.20
22173;DHT22;11252;50.596;17.648;2023-03-30T02:29:19;6.10;92.20
22173;DHT22;11252;50.596;17.648;2023-03-30T02:31:51;6.10;92.20
22173;DHT22;11252;50.596;17.648;2023-03-30T02:42:29;6.10;92.20
22173;DHT22;11252;50.596;17.648;2023-03-30T02:50:44;6.10;92.20
22173;DHT22;11252;50.596;17.648;2023-03-30T02:56:00;6.10;92.20
22173;DHT22;11252;50.596;17.648;2023-03-30T02:58:55;6.10;92.20
22173;DHT22;11252;50.596;17.648;2023-03-30T03:04:06;6.10;92.20
22173;DHT22;11252;50.596;17.648;2023-03-30T03:06:37;6.00;92.20
22173;DHT22;11252;50.596;17.648;2023-03-30T03:09:04;6.00;92.20
22173;DHT22;11252;50.596;17.648;2023-03-30T03:11:32;6.00;92.20
22173;DHT22;11252;50.596;17.648;2023-03-30T03:13:59;6.00;92.20
22173;DHT22;11252;50.596;17.648;2023-03-30T03:16:26;6.00;92.20
22173;DHT22;11252;50.596;17.648;2023-03-30T03:18:54;6.00;92.20
22173;DHT22;11252;50.596;17.648;2023-03-30T03:21:21;6.00;92.20
22173;DHT22;11252;50.596;17.648;2023-03-30T03:23:48;6.00;92.20
22173;DHT22;11252;50.596;17.648;2023-03-30T03:26:16;6.00;92.20
22173;DHT22;11252;50.596;17.648;2023-03-30T03:28:44;6.00;92.20
22173;DHT22;11252;50.596;17.648;2023-03-30T03:31:12;6.00;92.20
22173;DHT22;11252;50.596;17.648;2023-03-30T03:33:40;6.00;92.20
22173;DHT22;11252;50.596;17.648;2023-03-30T03:36:07;6.00;92.20
22173;DHT22;11252;50.596;17.648;2023-03-30T03:38:35;6.00;92.20
22173;DHT22;11252;50.596;17.648;2023-03-30T03:41:03;6.00;92.20
22173;DHT22;11252;50.596;17.648;2023-03-30T03:43:31;5.90;92.20
22173;DHT22;11252;50.596;17.648;2023-03-30T03:45:58;6.00;92.20
22173;DHT22;11252;50.596;17.648;2023-03-30T03:48:26;6.00;92.20
22173;DHT22;11252;50.596;17.648;2023-03-30T03:50:58;6.10;92.20
22173;DHT22;11252;50.596;17.648;2023-03-30T03:53:27;6.00;92.20
22173;DHT22;11252;50.596;17.648;2023-03-30T03:55:54;6.00;92.20
22173;DHT22;11252;50.596;17.648;2023-03-30T03:58:22;6.00;92.20
22173;DHT22;11252;50.596;17.648;2023-03-30T04:00:50;6.00;92.20
22173;DHT22;11252;50.596;17.648;2023-03-30T04:03:18;6.10;92.20
22173;DHT22;11252;50.596;17.648;2023-03-30T04:05:45;6.10;92.20
22173;DHT22;11252;50.596;17.648;2023-03-30T04:08:13;6.10;92.20
22173;DHT22;11252;50.596;17.648;2023-03-30T04:10:46;6.00;92.20
22173;DHT22;11252;50.596;17.648;2023-03-30T04:13:13;6.10;92.20
22173;DHT22;11252;50.596;17.648;2023-03-30T04:15:41;6.10;92.20
22173;DHT22;11252;50.596;17.648;2023-03-30T04:18:09;6.10;92.20
22173;DHT22;11252;50.596;17.648;2023-03-30T04:20:37;6.10;92.20
22173;DHT22;11252;50.596;17.648;2023-03-30T04:23:04;6.10;92.20
22173;DHT22;11252;50.596;17.648;2023-03-30T04:25:31;6.10;92.20
22173;DHT22;11252;50.596;17.648;2023-03-30T04:27:59;6.10;92.20
22173;DHT22;11252;50.596;17.648;2023-03-30T04:30:26;6.00;92.20
22173;DHT22;11252;50.596;17.648;2023-03-30T04:32:56;6.00;92.20
22173;DHT22;11252;50.596;17.648;2023-03-30T04:35:32;6.00;92.20
22173;DHT22;11252;50.596;17.648;2023-03-30T04:38:00;6.10;92.20
22173;DHT22;11252;50.596;17.648;2023-03-30T04:40:28;6.10;92.20
22173;DHT22;11252;50.596;17.648;2023-03-30T04:42:56;6.10;92.20
22173;DHT22;11252;50.596;17.648;2023-03-30T04:45:29;6.20;92.20
22173;DHT22;11252;50.596;17.648;2023-03-30T04:47:57;6.20;92.20
22173;DHT22;11252;50.596;17.648;2023-03-30T04:50:25;6.30;92.20
22173;DHT22;11252;50.596;17.648;2023-03-30T04:52:52;6.30;92.20
22173;DHT22;11252;50.596;17.648;2023-03-30T04:55:20;6.30;92.20
22173;DHT22;11252;50.596;17.648;2023-03-30T04:57:47;6.30;92.20
22173;DHT22;11252;50.596;17.648;2023-03-30T05:00:16;6.40;92.20
22173;DHT22;11252;50.596;17.648;2023-03-30T05:02:44;6.40;92.20
22173;DHT22;11252;50.596;17.648;2023-03-30T05:05:11;6.40;92.20
22173;DHT22;11252;50.596;17.648;2023-03-30T05:07:39;6.40;92.20
22173;DHT22;11252;50.596;17.648;2023-03-30T05:10:07;6.40;92.20
22173;DHT22;11252;50.596;17.648;2023-03-30T05:12:34;6.40;92.20
22173;DHT22;11252;50.596;17.648;2023-03-30T05:15:02;6.40;92.20
22173;DHT22;11252;50.596;17.648;2023-03-30T05:17:33;6.40;92.20
22173;DHT22;11252;50.596;17.648;2023-03-30T05:20:01;6.40;92.20
22173;DHT22;11252;50.596;17.648;2023-03-30T05:22:34;6.50;92.20
22173;DHT22;11252;50.596;17.648;2023-03-30T05:25:03;6.50;92.20
22173;DHT22;11252;50.596;17.648;2023-03-30T05:27:30;6.50;92.20
22173;DHT22;11252;50.596;17.648;2023-03-30T05:29:58;6.60;92.20
22173;DHT22;11252;50.596;17.648;2023-03-30T05:32:25;6.70;92.20
22173;DHT22;11252;50.596;17.648;2023-03-30T05:34:52;6.70;92.20
22173;DHT22;11252;50.596;17.648;2023-03-30T05:37:20;6.80;92.20
22173;DHT22;11252;50.596;17.648;2023-03-30T05:39:47;6.90;92.20
22173;DHT22;11252;50.596;17.648;2023-03-30T05:42:15;6.90;92.20
22173;DHT22;11252;50.596;17.648;2023-03-30T05:44:42;7.00;92.20
22173;DHT22;11252;50.596;17.648;2023-03-30T05:47:09;7.00;92.20
22173;DHT22;11252;50.596;17.648;2023-03-30T05:49:37;7.00;92.20
22173;DHT22;11252;50.596;17.648;2023-03-30T05:52:04;7.10;92.20
22173;DHT22;11252;50.596;17.648;2023-03-30T05:54:32;7.10;92.20
22173;DHT22;11252;50.596;17.648;2023-03-30T05:57:00;7.10;92.20
22173;DHT22;11252;50.596;17.648;2023-03-30T05:59:27;7.20;92.20
22173;DHT22;11252;50.596;17.648;2023-03-30T06:01:54;7.30;92.20
22173;DHT22;11252;50.596;17.648;2023-03-30T06:04:22;7.30;92.20
22173;DHT22;11252;50.596;17.648;2023-03-30T06:06:49;7.30;92.20
22173;DHT22;11252;50.596;17.648;2023-03-30T06:09:17;7.30;92.20
22173;DHT22;11252;50.596;17.648;2023-03-30T06:11:44;7.30;92.20
22173;DHT22;11252;50.596;17.648;2023-03-30T06:14:11;7.40;92.20
22173;DHT22;11252;50.596;17.648;2023-03-30T06:16:39;7.50;92.20
22173;DHT22;11252;50.596;17.648;2023-03-30T06:19:07;7.60;92.20
22173;DHT22;11252;50.596;17.648;2023-03-30T06:21:34;7.70;92.20
22173;DHT22;11252;50.596;17.648;2023-03-30T06:24:01;7.80;92.20
22173;DHT22;11252;50.596;17.648;2023-03-30T06:26:31;7.90;92.20
22173;DHT22;11252;50.596;17.648;2023-03-30T06:28:59;8.10;92.20
22173;DHT22;11252;50.596;17.648;2023-03-30T06:31:27;8.30;92.20
22173;DHT22;11252;50.596;17.648;2023-03-30T06:33:55;8.50;92.20
22173;DHT22;11252;50.596;17.648;2023-03-30T06:36:22;8.70;92.20
22173;DHT22;11252;50.596;17.648;2023-03-30T06:39:09;8.90;92.20
22173;DHT22;11252;50.596;17.648;2023-03-30T06:41:37;9.10;92.20
22173;DHT22;11252;50.596;17.648;2023-03-30T06:44:05;9.40;92.20
22173;DHT22;11252;50.596;17.648;2023-03-30T06:46:32;9.70;92.20
22173;DHT22;11252;50.596;17.648;2023-03-30T06:49:00;9.90;92.20
22173;DHT22;11252;50.596;17.648;2023-03-30T06:51:27;10.00;91.30
22173;DHT22;11252;50.596;17.648;2023-03-30T06:53:55;10.10;91.20
22173;DHT22;11252;50.596;17.648;2023-03-30T06:56:22;10.20;91.40
22173;DHT22;11252;50.596;17.648;2023-03-30T06:58:50;10.20;91.10
22173;DHT22;11252;50.596;17.648;2023-03-30T07:01:17;10.30;91.00
22173;DHT22;11252;50.596;17.648;2023-03-30T07:03:45;10.40;90.30
22173;DHT22;11252;50.596;17.648;2023-03-30T07:06:12;10.40;90.00
22173;DHT22;11252;50.596;17.648;2023-03-30T07:08:40;10.30;90.30
22173;DHT22;11252;50.596;17.648;2023-03-30T07:11:07;10.30;90.80
22173;DHT22;11252;50.596;17.648;2023-03-30T07:13:34;10.40;90.90
22173;DHT22;11252;50.596;17.648;2023-03-30T07:16:02;10.30;90.90
22173;DHT22;11252;50.596;17.648;2023-03-30T07:18:29;10.40;91.60
22173;DHT22;11252;50.596;17.648;2023-03-30T07:20:57;10.30;91.90
22173;DHT22;11252;50.596;17.648;2023-03-30T07:23:25;10.40;92.10
22173;DHT22;11252;50.596;17.648;2023-03-30T07:25:53;10.30;92.20
22173;DHT22;11252;50.596;17.648;2023-03-30T07:28:20;10.30;92.20
22173;DHT22;11252;50.596;17.648;2023-03-30T07:30:48;10.40;92.00
22173;DHT22;11252;50.596;17.648;2023-03-30T07:33:16;10.40;92.10
22173;DHT22;11252;50.596;17.648;2023-03-30T07:35:45;10.50;92.10
22173;DHT22;11252;50.596;17.648;2023-03-30T07:38:13;10.60;92.00
22173;DHT22;11252;50.596;17.648;2023-03-30T07:40:40;10.60;91.50
22173;DHT22;11252;50.596;17.648;2023-03-30T07:43:08;10.70;90.90
22173;DHT22;11252;50.596;17.648;2023-03-30T07:45:35;10.80;90.90
22173;DHT22;11252;50.596;17.648;2023-03-30T07:48:02;10.90;90.50
22173;DHT22;11252;50.596;17.648;2023-03-30T07:50:30;11.00;90.80
22173;DHT22;11252;50.596;17.648;2023-03-30T07:52:57;11.10;89.80
22173;DHT22;11252;50.596;17.648;2023-03-30T07:55:25;11.20;89.70
22173;DHT22;11252;50.596;17.648;2023-03-30T07:57:55;11.20;89.20
22173;DHT22;11252;50.596;17.648;2023-03-30T08:00:23;11.30;89.70
22173;DHT22;11252;50.596;17.648;2023-03-30T08:02:51;11.40;89.40
22173;DHT22;11252;50.596;17.648;2023-03-30T08:05:19;11.40;89.40
22173;DHT22;11252;50.596;17.648;2023-03-30T08:07:46;11.60;88.80
22173;DHT22;11252;50.596;17.648;2023-03-30T08:10:15;11.80;87.80
22173;DHT22;11252;50.596;17.648;2023-03-30T08:12:42;12.00;87.30
22173;DHT22;11252;50.596;17.648;2023-03-30T08:15:10;12.20;87.10
22173;DHT22;11252;50.596;17.648;2023-03-30T08:17:37;12.40;86.90
22173;DHT22;11252;50.596;17.648;2023-03-30T08:20:05;12.90;85.80
22173;DHT22;11252;50.596;17.648;2023-03-30T08:22:36;13.10;85.10
22173;DHT22;11252;50.596;17.648;2023-03-30T08:25:04;13.10;84.40
22173;DHT22;11252;50.596;17.648;2023-03-30T08:27:31;13.10;85.30
22173;DHT22;11252;50.596;17.648;2023-03-30T08:29:59;13.30;84.10
22173;DHT22;11252;50.596;17.648;2023-03-30T08:32:26;13.30;84.00
22173;DHT22;11252;50.596;17.648;2023-03-30T08:34:54;13.50;83.70
22173;DHT22;11252;50.596;17.648;2023-03-30T08:37:21;13.60;83.10
22173;DHT22;11252;50.596;17.648;2023-03-30T08:39:48;13.60;83.30
22173;DHT22;11252;50.596;17.648;2023-03-30T08:42:38;14.10;83.60
22173;DHT22;11252;50.596;17.648;2023-03-30T08:45:11;14.70;81.90
22173;DHT22;11252;50.596;17.648;2023-03-30T08:47:43;15.10;80.30
22173;DHT22;11252;50.596;17.648;2023-03-30T08:52:40;15.00;80.70
22173;DHT22;11252;50.596;17.648;2023-03-30T08:55:25;15.10;79.80
22173;DHT22;11252;50.596;17.648;2023-03-30T09:00:45;15.50;80.40
22173;DHT22;11252;50.596;17.648;2023-03-30T09:06:10;15.90;78.60
22173;DHT22;11252;50.596;17.648;2023-03-30T09:08:40;16.10;78.70
22173;DHT22;11252;50.596;17.648;2023-03-30T09:11:13;16.10;78.60
22173;DHT22;11252;50.596;17.648;2023-03-30T09:13:43;16.30;77.30
22173;DHT22;11252;50.596;17.648;2023-03-30T09:16:31;16.60;78.40
22173;DHT22;11252;50.596;17.648;2023-03-30T09:19:00;16.60;77.60
22173;DHT22;11252;50.596;17.648;2023-03-30T09:21:30;16.80;76.70
22173;DHT22;11252;50.596;17.648;2023-03-30T09:23:59;16.90;77.00
22173;DHT22;11252;50.596;17.648;2023-03-30T09:29:05;16.60;77.90
22173;DHT22;11252;50.596;17.648;2023-03-30T09:31:39;16.30;76.90
22173;DHT22;11252;50.596;17.648;2023-03-30T09:37:03;16.70;77.80
22173;DHT22;11252;50.596;17.648;2023-03-30T09:39:34;16.60;77.20
22173;DHT22;11252;50.596;17.648;2023-03-30T09:44:54;17.00;76.60
22173;DHT22;11252;50.596;17.648;2023-03-30T09:47:24;17.20;76.70
22173;DHT22;11252;50.596;17.648;2023-03-30T09:50:02;17.70;76.70
22173;DHT22;11252;50.596;17.648;2023-03-30T09:52:32;17.90;75.10
22173;DHT22;11252;50.596;17.648;2023-03-30T09:57:49;18.50;74.90
22173;DHT22;11252;50.596;17.648;2023-03-30T10:00:29;18.40;73.60
22173;DHT22;11252;50.596;17.648;2023-03-30T10:03:05;18.60;75.20
22173;DHT22;11252;50.596;17.648;2023-03-30T10:05:34;19.20;73.60
22173;DHT22;11252;50.596;17.648;2023-03-30T10:08:17;19.00;73.50
22173;DHT22;11252;50.596;17.648;2023-03-30T10:10:54;18.70;73.10
22173;DHT22;11252;50.596;17.648;2023-03-30T10:13:32;18.90;74.30
22173;DHT22;11252;50.596;17.648;2023-03-30T10:16:19;19.10;73.00
22173;DHT22;11252;50.596;17.648;2023-03-30T10:18:52;19.00;74.10
22173;DHT22;11252;50.596;17.648;2023-03-30T10:21:22;18.80;73.50
22173;DHT22;11252;50.596;17.648;2023-03-30T10:24:15;18.90;74.10
22173;DHT22;11252;50.596;17.648;2023-03-30T10:26:45;18.90;73.50
22173;DHT22;11252;50.596;17.648;2023-03-30T10:29:16;18.60;74.10
22173;DHT22;11252;50.596;17.648;2023-03-30T10:31:46;18.70;74.60
22173;DHT22;11252;50.596;17.648;2023-03-30T10:34:33;18.30;73.30
22173;DHT22;11252;50.596;17.648;2023-03-30T10:37:05;17.90;74.50
22173;DHT22;11252;50.596;17.648;2023-03-30T10:39:39;17.70;74.30
22173;DHT22;11252;50.596;17.648;2023-03-30T10:42:14;17.40;75.60
22173;DHT22;11252;50.596;17.648;2023-03-30T10:53:17;16.60;77.70
22173;DHT22;11252;50.596;17.648;2023-03-30T10:56:11;16.30;78.50
22173;DHT22;11252;50.596;17.648;2023-03-30T11:04:40;15.80;79.20
22173;DHT22;11252;50.596;17.648;2023-03-30T11:07:26;15.80;79.80
22173;DHT22;11252;50.596;17.648;2023-03-30T11:10:04;15.80;78.50
22173;DHT22;11252;50.596;17.648;2023-03-30T11:12:38;15.80;79.60
22173;DHT22;11252;50.596;17.648;2023-03-30T11:20:36;16.00;79.90
22173;DHT22;11252;50.596;17.648;2023-03-30T11:26:01;15.90;80.00
22173;DHT22;11252;50.596;17.648;2023-03-30T11:34:20;15.80;79.80
22173;DHT22;11252;50.596;17.648;2023-03-30T11:36:58;15.70;80.20
22173;DHT22;11252;50.596;17.648;2023-03-30T11:39:31;15.60;81.10
22173;DHT22;11252;50.596;17.648;2023-03-30T11:44:37;15.50;80.70
22173;DHT22;11252;50.596;17.648;2023-03-30T11:47:13;15.30;81.40
22173;DHT22;11252;50.596;17.648;2023-03-30T11:50:22;15.20;81.30
22173;DHT22;11252;50.596;17.648;2023-03-30T11:54:07;15.20;81.70
22173;DHT22;11252;50.596;17.648;2023-03-30T11:59:08;15.00;81.60
22173;DHT22;11252;50.596;17.648;2023-03-30T12:02:27;15.00;82.20
22173;DHT22;11252;50.596;17.648;2023-03-30T12:05:10;15.00;82.10
22173;DHT22;11252;50.596;17.648;2023-03-30T12:10:58;15.00;82.50
22173;DHT22;11252;50.596;17.648;2023-03-30T12:13:27;15.00;82.50
22173;DHT22;11252;50.596;17.648;2023-03-30T12:16:18;15.00;83.10
22173;DHT22;11252;50.596;17.648;2023-03-30T12:19:07;15.00;82.30
22173;DHT22;11252;50.596;17.648;2023-03-30T12:24:35;15.00;82.40
22173;DHT22;11252;50.596;17.648;2023-03-30T12:27:04;14.90;82.80
22173;DHT22;11252;50.596;17.648;2023-03-30T12:29:48;14.90;83.30
22173;DHT22;11252;50.596;17.648;2023-03-30T12:32:29;14.80;84.60
22173;DHT22;11252;50.596;17.648;2023-03-30T12:34:57;14.70;86.30
22173;DHT22;11252;50.596;17.648;2023-03-30T12:37:31;14.70;86.80
22173;DHT22;11252;50.596;17.648;2023-03-30T12:40:13;14.60;88.10
22173;DHT22;11252;50.596;17.648;2023-03-30T12:43:11;14.50;89.60
22173;DHT22;11252;50.596;17.648;2023-03-30T12:46:54;14.40;90.40
22173;DHT22;11252;50.596;17.648;2023-03-30T12:51:54;14.20;91.40
22173;DHT22;11252;50.596;17.648;2023-03-30T13:05:49;13.60;92.20
22173;DHT22;11252;50.596;17.648;2023-03-30T13:08:37;13.40;92.20
22173;DHT22;11252;50.596;17.648;2023-03-30T13:11:12;13.20;92.20
22173;DHT22;11252;50.596;17.648;2023-03-30T13:22:17;12.80;92.20
22173;DHT22;11252;50.596;17.648;2023-03-30T13:24:57;12.70;92.20
22173;DHT22;11252;50.596;17.648;2023-03-30T13:36:08;12.60;92.20
22173;DHT22;11252;50.596;17.648;2023-03-30T13:49:57;12.20;92.20
22173;DHT22;11252;50.596;17.648;2023-03-30T13:52:36;12.20;92.20
22173;DHT22;11252;50.596;17.648;2023-03-30T13:55:14;12.20;92.20
22173;DHT22;11252;50.596;17.648;2023-03-30T13:57:43;12.20;92.20
22173;DHT22;11252;50.596;17.648;2023-03-30T14:00:40;12.40;92.20
22173;DHT22;11252;50.596;17.648;2023-03-30T14:03:30;12.40;92.20
22173;DHT22;11252;50.596;17.648;2023-03-30T14:06:04;12.40;92.20
22173;DHT22;11252;50.596;17.648;2023-03-30T14:08:37;12.40;92.20
22173;DHT22;11252;50.596;17.648;2023-03-30T14:11:19;12.40;92.20
22173;DHT22;11252;50.596;17.648;2023-03-30T14:13:52;12.40;92.20
22173;DHT22;11252;50.596;17.648;2023-03-30T14:16:24;12.40;92.20
22173;DHT22;11252;50.596;17.648;2023-03-30T14:19:01;12.40;92.20
22173;DHT22;11252;50.596;17.648;2023-03-30T14:21:35;12.40;92.20
22173;DHT22;11252;50.596;17.648;2023-03-30T14:24:04;12.40;92.20
22173;DHT22;11252;50.596;17.648;2023-03-30T14:26:31;12.40;92.20
22173;DHT22;11252;50.596;17.648;2023-03-30T14:29:06;12.50;92.20
22173;DHT22;11252;50.596;17.648;2023-03-30T14:31:41;12.50;92.20
22173;DHT22;11252;50.596;17.648;2023-03-30T14:34:50;12.50;92.20
22173;DHT22;11252;50.596;17.648;2023-03-30T14:37:18;12.50;92.20
22173;DHT22;11252;50.596;17.648;2023-03-30T14:39:54;12.50;92.20
22173;DHT22;11252;50.596;17.648;2023-03-30T14:42:30;12.50;92.20
22173;DHT22;11252;50.596;17.648;2023-03-30T14:44:59;12.40;92.20
22173;DHT22;11252;50.596;17.648;2023-03-30T14:47:27;12.50;92.20
22173;DHT22;11252;50.596;17.648;2023-03-30T14:50:01;12.50;92.20
22173;DHT22;11252;50.596;17.648;2023-03-30T14:52:32;12.40;92.20
22173;DHT22;11252;50.596;17.648;2023-03-30T14:55:04;12.40;92.20
22173;DHT22;11252;50.596;17.648;2023-03-30T14:57:38;12.40;92.20
22173;DHT22;11252;50.596;17.648;2023-03-30T15:00:17;12.40;92.20
22173;DHT22;11252;50.596;17.648;2023-03-30T15:02:56;12.30;92.20
22173;DHT22;11252;50.596;17.648;2023-03-30T15:05:33;12.30;92.20
22173;DHT22;11252;50.596;17.648;2023-03-30T15:08:02;12.30;92.20
22173;DHT22;11252;50.596;17.648;2023-03-30T15:10:43;12.20;92.20
22173;DHT22;11252;50.596;17.648;2023-03-30T15:13:47;12.10;92.20
22173;DHT22;11252;50.596;17.648;2023-03-30T15:16:22;12.10;92.20
22173;DHT22;11252;50.596;17.648;2023-03-30T15:19:04;12.00;92.20
22173;DHT22;11252;50.596;17.648;2023-03-30T15:21:35;12.00;92.20
22173;DHT22;11252;50.596;17.648;2023-03-30T15:24:15;11.90;92.20
22173;DHT22;11252;50.596;17.648;2023-03-30T15:26:48;11.90;92.20
22173;DHT22;11252;50.596;17.648;2023-03-30T15:29:17;11.80;92.20
22173;DHT22;11252;50.596;17.648;2023-03-30T15:31:45;11.80;92.20
22173;DHT22;11252;50.596;17.648;2023-03-30T15:34:16;11.80;92.20
22173;DHT22;11252;50.596;17.648;2023-03-30T15:36:51;11.80;92.20
22173;DHT22;11252;50.596;17.648;2023-03-30T15:39:24;11.80;92.20
22173;DHT22;11252;50.596;17.648;2023-03-30T15:41:57;11.80;92.20
22173;DHT22;11252;50.596;17.648;2023-03-30T15:44:27;11.70;92.20
22173;DHT22;11252;50.596;17.648;2023-03-30T15:46:56;11.80;92.20
22173;DHT22;11252;50.596;17.648;2023-03-30T15:49:35;11.80;92.20
22173;DHT22;11252;50.596;17.648;2023-03-30T15:52:12;11.80;92.20
22173;DHT22;11252;50.596;17.648;2023-03-30T15:54:47;11.70;92.20
22173;DHT22;11252;50.596;17.648;2023-03-30T15:57:20;11.80;92.20
22173;DHT22;11252;50.596;17.648;2023-03-30T15:59:52;11.70;92.20
22173;DHT22;11252;50.596;17.648;2023-03-30T16:02:24;11.70;92.20
22173;DHT22;11252;50.596;17.648;2023-03-30T16:05:04;11.70;92.20
22173;DHT22;11252;50.596;17.648;2023-03-30T16:07:32;11.70;92.20
22173;DHT22;11252;50.596;17.648;2023-03-30T16:10:01;11.70;92.20
22173;DHT22;11252;50.596;17.648;2023-03-30T16:12:29;11.60;92.20
22173;DHT22;11252;50.596;17.648;2023-03-30T16:14:57;11.60;92.20
22173;DHT22;11252;50.596;17.648;2023-03-30T16:17:24;11.60;92.20
22173;DHT22;11252;50.596;17.648;2023-03-30T16:19:52;11.60;92.20
22173;DHT22;11252;50.596;17.648;2023-03-30T16:22:20;11.60;92.20
22173;DHT22;11252;50.596;17.648;2023-03-30T16:24:47;11.50;92.20
22173;DHT22;11252;50.596;17.648;2023-03-30T16:27:15;11.50;92.20
22173;DHT22;11252;50.596;17.648;2023-03-30T16:29:42;11.50;92.20
22173;DHT22;11252;50.596;17.648;2023-03-30T16:32:10;11.50;92.20
22173;DHT22;11252;50.596;17.648;2023-03-30T16:34:37;11.40;92.20
22173;DHT22;11252;50.596;17.648;2023-03-30T16:37:09;11.40;92.20
22173;DHT22;11252;50.596;17.648;2023-03-30T16:39:37;11.40;92.20
22173;DHT22;11252;50.596;17.648;2023-03-30T16:42:04;11.40;92.20
22173;DHT22;11252;50.596;17.648;2023-03-30T16:44:32;11.40;92.20
22173;DHT22;11252;50.596;17.648;2023-03-30T16:46:59;11.30;92.20
22173;DHT22;11252;50.596;17.648;2023-03-30T16:49:26;11.30;92.20
22173;DHT22;11252;50.596;17.648;2023-03-30T16:51:54;11.30;92.20
22173;DHT22;11252;50.596;17.648;2023-03-30T16:54:24;11.30;92.20
22173;DHT22;11252;50.596;17.648;2023-03-30T16:56:59;11.30;92.20
22173;DHT22;11252;50.596;17.648;2023-03-30T16:59:28;11.20;92.20
22173;DHT22;11252;50.596;17.648;2023-03-30T17:01:57;11.20;92.20
22173;DHT22;11252;50.596;17.648;2023-03-30T17:04:29;11.20;92.20
22173;DHT22;11252;50.596;17.648;2023-03-30T17:06:56;11.20;92.20
22173;DHT22;11252;50.596;17.648;2023-03-30T17:09:23;11.20;92.20
22173;DHT22;11252;50.596;17.648;2023-03-30T17:11:51;11.10;92.20
22173;DHT22;11252;50.596;17.648;2023-03-30T17:14:18;11.00;92.20
22173;DHT22;11252;50.596;17.648;2023-03-30T17:16:46;11.00;92.20
22173;DHT22;11252;50.596;17.648;2023-03-30T17:19:14;11.10;92.20
22173;DHT22;11252;50.596;17.648;2023-03-30T17:21:41;11.00;92.20
22173;DHT22;11252;50.596;17.648;2023-03-30T17:24:10;11.00;92.20
22173;DHT22;11252;50.596;17.648;2023-03-30T17:26:39;10.90;92.20
22173;DHT22;11252;50.596;17.648;2023-03-30T17:29:08;10.90;92.20
22173;DHT22;11252;50.596;17.648;2023-03-30T17:31:36;10.90;92.20
22173;DHT22;11252;50.596;17.648;2023-03-30T17:34:04;10.90;92.20
22173;DHT22;11252;50.596;17.648;2023-03-30T17:36:33;10.90;92.20
22173;DHT22;11252;50.596;17.648;2023-03-30T17:39:00;10.90;92.20
22173;DHT22;11252;50.596;17.648;2023-03-30T17:41:31;10.80;92.20
22173;DHT22;11252;50.596;17.648;2023-03-30T17:44:00;10.80;92.20
22173;DHT22;11252;50.596;17.648;2023-03-30T17:46:27;10.80;92.20
22173;DHT22;11252;50.596;17.648;2023-03-30T17:48:55;10.80;92.20
22173;DHT22;11252;50.596;17.648;2023-03-30T17:51:24;10.80;92.20
22173;DHT22;11252;50.596;17.648;2023-03-30T17:53:51;10.80;92.20
22173;DHT22;11252;50.596;17.648;2023-03-30T17:56:19;10.70;92.20
22173;DHT22;11252;50.596;17.648;2023-03-30T17:58:47;10.80;92.20
22173;DHT22;11252;50.596;17.648;2023-03-30T18:01:15;10.80;92.20
22173;DHT22;11252;50.596;17.648;2023-03-30T18:03:46;10.80;92.20
22173;DHT22;11252;50.596;17.648;2023-03-30T18:06:13;10.70;92.20
22173;DHT22;11252;50.596;17.648;2023-03-30T18:08:41;10.70;92.20
22173;DHT22;11252;50.596;17.648;2023-03-30T18:11:09;10.70;92.20
22173;DHT22;11252;50.596;17.648;2023-03-30T18:13:37;10.70;92.20